Airfield :
LOGIN :

Register | Disclaimer

   EN    FR    IT 

 










Legend :    VFR   Marginal VFR   IFR   Intensive IFR   Very Intensive IFR
Visi :
Ceiling :
>= 8 km
>= 3000ft
5 to 8 km
1000 to 3000 ft
1500m to 5 km
500 to 1000 ft
800 to 1500m
200 to 500 ft
< 800m
< 200 ft
Symbols :   Thunderstorms  Fog  Heavy snow  Heavy precipitations  Wind > 20 kt
SIGMETs :     Misc.  Thunderstorms  Icing  Turbulence  Mountain Waves  Volcanic Ashes







- Airport Elevation : 1674 ft
- IATA code : BRN


LSZB - Bern Belp

CURRENT METAR :
  • 240820Z 35003KT 9999 FEW020 BKN026 22/17 Q1020 NOSIG

EXPIRED METARs :
  • 240750Z 32005KT 9999 SCT024 BKN030 22/17 Q1020 NOSIG
  • 240720Z 32003KT 280V010 9999 FEW020 BKN030 22/18 Q1020 NOSIG
  • 240650Z 32006KT 9999 FEW023 BKN029 22/18 Q1020 NOSIG
  • 240620Z 33006KT 9999 FEW026 BKN030 22/18 Q1020 NOSIG
  • 240550Z 33002KT 9999 FEW027 BKN032 21/19 Q1020 NOSIG

Expired Forecast.
ATIS : +41 22 417 40 76
No reported NOTAMs for that airfield.



MET'MAP, your aeronautical weather chart ! - Copyright ORBIFLY December 2007 - Disclaimer

ORBIFLY MET'MAP TEAM :

Programming & Development : Alexandra Zaïnal
Concept & Development : Baudouin d'Aumeries
Co-Development & Prog : Marc-Olivier Méhu
Technical & hardware support : Manuel Goepfert

Contact : metmap@orbifly.com




SOURCES & CREDITS :

   NOAA